createdAt,value
2023-01-22T00:01:09.378Z,13.48
2023-01-22T00:03:38.052Z,13.44
2023-01-22T00:06:05.807Z,13.42
2023-01-22T00:08:35.409Z,13.39
2023-01-22T00:11:02.487Z,13.38
2023-01-22T00:13:30.173Z,13.36
2023-01-22T00:15:58.598Z,13.34
2023-01-22T00:18:26.012Z,13.30
2023-01-22T00:20:55.431Z,13.29
2023-01-22T00:23:23.830Z,13.25
2023-01-22T00:26:00.176Z,13.27
2023-01-22T00:28:27.204Z,13.25
2023-01-22T00:31:01.215Z,13.23
2023-01-22T00:33:29.243Z,13.22
2023-01-22T00:35:56.486Z,13.20
2023-01-22T00:38:23.399Z,13.19
2023-01-22T00:40:50.614Z,13.17
2023-01-22T00:43:17.621Z,13.15
2023-01-22T00:45:44.662Z,13.16
2023-01-22T00:48:11.523Z,13.13
2023-01-22T00:50:38.586Z,13.11
2023-01-22T00:53:05.476Z,13.10
2023-01-22T00:55:32.399Z,13.10
2023-01-22T00:57:59.315Z,13.08
2023-01-22T01:00:26.421Z,13.08
2023-01-22T01:03:12.111Z,13.06
2023-01-22T01:05:39.013Z,13.04
2023-01-22T01:08:06.331Z,13.05
2023-01-22T01:10:33.363Z,13.05
2023-01-22T01:13:00.407Z,13.03
2023-01-22T01:15:27.313Z,13.01
2023-01-22T01:17:54.229Z,12.97
2023-01-22T01:20:21.138Z,13.00
2023-01-22T01:22:48.030Z,12.96
2023-01-22T01:25:14.947Z,12.94
2023-01-22T01:27:41.846Z,12.96
2023-01-22T01:30:09.445Z,12.94
2023-01-22T01:32:36.321Z,12.95
2023-01-22T01:35:03.259Z,12.96
2023-01-22T01:37:30.099Z,12.96
2023-01-22T01:39:56.939Z,12.94
2023-01-22T01:42:31.913Z,12.91
2023-01-22T01:45:21.834Z,12.92
2023-01-22T01:48:21.096Z,12.92
2023-01-22T01:50:54.424Z,12.92
2023-01-22T01:53:21.312Z,12.91
2023-01-22T01:55:49.014Z,12.92
2023-01-22T01:58:21.881Z,12.91
2023-01-22T02:00:55.309Z,12.91
2023-01-22T02:03:22.737Z,12.87
2023-01-22T02:05:49.692Z,12.90
2023-01-22T02:08:17.125Z,12.90
2023-01-22T02:10:44.786Z,12.89
2023-01-22T02:13:17.129Z,12.89
2023-01-22T02:15:44.251Z,12.88
2023-01-22T02:18:11.374Z,12.89
2023-01-22T02:20:40.078Z,12.89
2023-01-22T02:23:07.574Z,12.88
2023-01-22T02:25:34.560Z,12.90
2023-01-22T02:28:01.464Z,12.91
2023-01-22T02:30:28.765Z,12.89
2023-01-22T02:32:55.674Z,12.90
2023-01-22T02:35:22.534Z,12.90
2023-01-22T02:37:49.523Z,12.90
2023-01-22T02:40:16.905Z,12.92
2023-01-22T02:42:44.037Z,12.92
2023-01-22T02:45:11.384Z,12.92
2023-01-22T02:47:38.311Z,12.93
2023-01-22T02:50:05.739Z,12.94
2023-01-22T02:52:32.619Z,12.93
2023-01-22T02:54:59.593Z,12.94
2023-01-22T02:57:26.526Z,12.95
2023-01-22T02:59:53.337Z,12.96
2023-01-22T03:02:20.335Z,12.95
2023-01-22T03:04:50.381Z,12.96
2023-01-22T03:07:18.487Z,12.99
2023-01-22T03:09:45.926Z,12.99
2023-01-22T03:12:13.100Z,13.00
2023-01-22T03:14:58.277Z,13.00
2023-01-22T03:17:43.584Z,12.99
2023-01-22T03:20:31.921Z,13.02
2023-01-22T03:22:58.821Z,13.02
2023-01-22T03:25:25.688Z,13.02
2023-01-22T03:28:15.223Z,13.02
2023-01-22T03:30:42.039Z,13.00
2023-01-22T03:33:08.915Z,13.02
2023-01-22T03:35:35.742Z,13.04
2023-01-22T03:38:02.550Z,13.05
2023-01-22T03:40:29.514Z,13.06
2023-01-22T03:42:56.373Z,13.05
2023-01-22T03:45:23.185Z,13.07
2023-01-22T03:47:51.657Z,13.07
2023-01-22T03:50:18.835Z,13.08
2023-01-22T03:52:45.873Z,13.07
2023-01-22T03:55:12.725Z,13.06
2023-01-22T03:57:39.532Z,13.07
2023-01-22T04:00:07.882Z,13.08
2023-01-22T04:02:34.947Z,13.07
2023-01-22T04:05:01.829Z,13.08
2023-01-22T04:07:28.740Z,13.11
2023-01-22T04:09:55.575Z,13.10
2023-01-22T04:12:22.391Z,13.07
2023-01-22T04:14:49.182Z,13.08
2023-01-22T04:17:16.028Z,13.12
2023-01-22T04:19:42.886Z,13.12
2023-01-22T04:22:09.678Z,13.12
2023-01-22T04:24:37.003Z,13.12
2023-01-22T04:27:03.920Z,13.13
2023-01-22T04:29:30.705Z,13.13
2023-01-22T04:31:57.604Z,13.13
2023-01-22T04:34:24.439Z,13.13
2023-01-22T04:36:51.277Z,13.14
2023-01-22T04:39:18.126Z,13.14
2023-01-22T04:41:45.220Z,13.16
2023-01-22T04:44:12.241Z,13.15
2023-01-22T04:46:39.089Z,13.18
2023-01-22T04:49:05.887Z,13.18
2023-01-22T04:51:32.679Z,13.19
2023-01-22T04:53:59.487Z,13.19
2023-01-22T04:56:26.309Z,13.19
2023-01-22T04:58:53.092Z,13.21
2023-01-22T05:01:19.975Z,13.19
2023-01-22T05:03:46.868Z,13.22
2023-01-22T05:06:13.742Z,13.21
2023-01-22T05:08:40.723Z,13.22
2023-01-22T05:11:07.595Z,13.22
2023-01-22T05:13:34.470Z,13.23
2023-01-22T05:16:01.385Z,13.27
2023-01-22T05:18:28.347Z,13.26
2023-01-22T05:20:55.176Z,13.25
2023-01-22T05:23:21.969Z,13.25
2023-01-22T05:25:50.296Z,13.27
2023-01-22T05:28:17.183Z,13.28
2023-01-22T05:30:44.047Z,13.30
2023-01-22T05:33:11.544Z,13.30
2023-01-22T05:35:38.694Z,13.31
2023-01-22T05:38:05.512Z,13.33
2023-01-22T05:40:32.374Z,13.35
2023-01-22T05:42:59.221Z,13.35
2023-01-22T05:45:26.049Z,13.34
2023-01-22T05:47:53.874Z,13.36
2023-01-22T05:50:22.194Z,13.35
2023-01-22T05:52:54.834Z,13.34
2023-01-22T05:55:21.873Z,13.33
2023-01-22T05:57:49.181Z,13.38
2023-01-22T06:00:17.222Z,13.35
2023-01-22T06:02:44.581Z,13.37
2023-01-22T06:05:11.632Z,13.37
2023-01-22T06:07:38.551Z,13.41
2023-01-22T06:10:05.950Z,13.41
2023-01-22T06:12:33.299Z,13.40
2023-01-22T06:15:00.149Z,13.42
2023-01-22T06:17:26.954Z,13.40
2023-01-22T06:19:53.790Z,13.39
2023-01-22T06:22:20.713Z,13.41
2023-01-22T06:24:47.609Z,13.41
2023-01-22T06:27:14.586Z,13.44
2023-01-22T06:29:41.404Z,13.43
2023-01-22T06:32:08.848Z,13.46
2023-01-22T06:34:35.759Z,13.44
2023-01-22T06:37:02.886Z,13.44
2023-01-22T06:39:29.795Z,13.45
2023-01-22T06:41:56.684Z,13.46
2023-01-22T06:44:23.611Z,13.44
2023-01-22T06:46:50.656Z,13.46
2023-01-22T06:49:17.560Z,13.46
2023-01-22T06:51:44.344Z,13.49
2023-01-22T06:54:14.381Z,13.47
2023-01-22T06:56:41.364Z,13.49
2023-01-22T06:59:08.440Z,13.49
2023-01-22T07:01:35.555Z,13.51
2023-01-22T07:04:02.728Z,13.50
2023-01-22T07:06:29.902Z,13.52
2023-01-22T07:08:57.222Z,13.53
2023-01-22T07:11:24.101Z,13.49
2023-01-22T07:13:50.961Z,13.53
2023-01-22T07:16:17.894Z,13.50
2023-01-22T07:18:44.789Z,13.52
2023-01-22T07:21:13.135Z,13.52
2023-01-22T07:23:40.480Z,13.53
2023-01-22T07:26:07.367Z,13.53
2023-01-22T07:28:34.566Z,13.54
2023-01-22T07:31:03.784Z,13.55
2023-01-22T07:33:30.754Z,13.55
2023-01-22T07:35:58.385Z,13.54
2023-01-22T07:38:28.020Z,13.57
2023-01-22T07:41:00.356Z,13.55
2023-01-22T07:43:27.201Z,13.57
2023-01-22T07:45:54.326Z,13.56
2023-01-22T07:48:21.293Z,13.56
2023-01-22T07:50:48.245Z,13.56
2023-01-22T07:53:15.200Z,13.58
2023-01-22T07:55:42.126Z,13.57
2023-01-22T07:58:09.061Z,13.56
2023-01-22T08:00:36.247Z,13.53
2023-01-22T08:03:07.242Z,13.55
2023-01-22T08:05:34.463Z,13.63
2023-01-22T08:08:01.507Z,13.70
2023-01-22T08:10:28.514Z,13.75
2023-01-22T08:12:55.347Z,13.80
2023-01-22T08:15:22.337Z,13.83
2023-01-22T08:17:51.354Z,13.83
2023-01-22T08:20:18.664Z,13.83
2023-01-22T08:22:45.954Z,13.76
2023-01-22T08:25:13.036Z,13.74
2023-01-22T08:27:39.916Z,13.71
2023-01-22T08:30:09.104Z,13.69
2023-01-22T08:32:36.040Z,13.72
2023-01-22T08:35:02.953Z,13.76
2023-01-22T08:37:29.841Z,13.77
2023-01-22T08:39:56.770Z,13.82
2023-01-22T08:42:23.857Z,13.86
2023-01-22T08:44:50.767Z,13.87
2023-01-22T08:47:17.785Z,13.90
2023-01-22T08:49:44.712Z,13.94
2023-01-22T08:52:11.634Z,13.95
2023-01-22T08:54:38.552Z,13.98
2023-01-22T08:57:05.645Z,14.00
2023-01-22T08:59:32.472Z,14.00
2023-01-22T09:02:00.285Z,14.00
2023-01-22T09:04:27.779Z,14.05
2023-01-22T09:06:55.393Z,14.06
2023-01-22T09:09:22.688Z,14.05
2023-01-22T09:11:49.874Z,14.10
2023-01-22T09:14:16.932Z,14.12
2023-01-22T09:16:43.903Z,14.06
2023-01-22T09:19:11.425Z,14.03
2023-01-22T09:21:38.585Z,14.01
2023-01-22T09:24:06.811Z,13.84
2023-01-22T09:26:34.347Z,13.83
2023-01-22T09:29:01.878Z,13.90
2023-01-22T09:31:29.024Z,13.92
2023-01-22T09:33:56.109Z,14.00
2023-01-22T09:36:23.033Z,14.06
2023-01-22T09:38:50.156Z,14.11
2023-01-22T09:41:25.915Z,14.16
2023-01-22T09:43:57.931Z,14.20
2023-01-22T09:46:37.099Z,14.24
2023-01-22T09:49:12.041Z,14.29
2023-01-22T09:51:39.688Z,14.32
2023-01-22T09:54:09.095Z,14.36
2023-01-22T09:56:42.008Z,14.38
2023-01-22T09:59:16.592Z,14.43
2023-01-22T10:01:48.251Z,14.47
2023-01-22T10:04:29.667Z,14.37
2023-01-22T10:06:59.068Z,14.36
2023-01-22T10:09:31.601Z,14.41
2023-01-22T10:12:00.132Z,14.44
2023-01-22T10:14:29.847Z,14.46
2023-01-22T10:17:00.600Z,14.47
2023-01-22T10:19:45.593Z,14.48
2023-01-22T10:22:19.707Z,14.48
2023-01-22T10:24:46.657Z,14.51
2023-01-22T10:27:17.388Z,14.52
2023-01-22T10:30:14.882Z,14.56
2023-01-22T10:32:42.263Z,14.60
2023-01-22T10:35:11.998Z,14.63
2023-01-22T10:37:46.905Z,14.64
2023-01-22T10:40:21.963Z,14.66
2023-01-22T10:43:01.498Z,14.68
2023-01-22T10:45:28.647Z,14.70
2023-01-22T10:48:16.096Z,14.70
2023-01-22T10:50:45.527Z,14.72
2023-01-22T10:53:19.691Z,14.74
2023-01-22T10:55:53.341Z,14.77
2023-01-22T10:58:23.535Z,14.78
2023-01-22T11:00:59.828Z,14.79
2023-01-22T11:03:33.654Z,14.77
2023-01-22T11:06:05.793Z,14.78
2023-01-22T11:08:43.414Z,14.80
2023-01-22T11:11:13.278Z,14.81
2023-01-22T11:13:58.817Z,14.82
2023-01-22T11:16:25.795Z,14.84
2023-01-22T11:18:55.786Z,14.84
2023-01-22T11:21:34.223Z,14.84
2023-01-22T11:24:28.423Z,14.82
2023-01-22T11:27:22.583Z,14.79
2023-01-22T11:30:08.137Z,14.79
2023-01-22T11:33:16.135Z,14.79
2023-01-22T11:35:58.967Z,14.78
2023-01-22T11:38:36.724Z,14.77
2023-01-22T11:41:16.788Z,14.76
2023-01-22T11:43:56.023Z,14.69
2023-01-22T11:46:28.788Z,14.71
2023-01-22T11:49:33.843Z,14.63
2023-01-22T11:52:31.558Z,14.54
2023-01-22T11:55:07.499Z,14.54
2023-01-22T11:57:39.168Z,14.54
2023-01-22T12:00:27.861Z,14.61
2023-01-22T12:03:28.844Z,14.63
2023-01-22T12:06:16.569Z,14.63
2023-01-22T12:08:46.420Z,14.63
2023-01-22T12:11:18.982Z,14.62
2023-01-22T12:14:30.711Z,14.65
2023-01-22T12:17:05.111Z,14.66
2023-01-22T12:20:08.635Z,14.70
2023-01-22T12:22:52.663Z,14.75
2023-01-22T12:25:29.041Z,14.75
2023-01-22T12:28:03.059Z,14.81
2023-01-22T12:31:00.430Z,14.86
2023-01-22T12:33:31.381Z,14.91
2023-01-22T12:36:02.284Z,14.94
2023-01-22T12:38:48.050Z,14.98
2023-01-22T12:41:48.911Z,15.06
2023-01-22T12:44:37.876Z,15.09
2023-01-22T12:47:35.249Z,15.14
2023-01-22T12:50:04.695Z,15.19
2023-01-22T12:52:32.318Z,15.23
2023-01-22T12:55:00.315Z,15.27
2023-01-22T12:57:39.919Z,15.30
2023-01-22T13:00:30.550Z,15.34
2023-01-22T13:02:58.886Z,15.37
2023-01-22T13:05:31.552Z,15.40
2023-01-22T13:08:39.335Z,15.45
2023-01-22T13:11:13.084Z,15.48
2023-01-22T13:13:46.031Z,15.52
2023-01-22T13:16:15.821Z,15.53
2023-01-22T13:18:47.963Z,15.55
2023-01-22T13:21:17.756Z,15.57
2023-01-22T13:23:47.311Z,15.58
2023-01-22T13:26:27.426Z,15.60
2023-01-22T13:29:20.583Z,15.64
2023-01-22T13:32:16.616Z,15.67
2023-01-22T13:34:43.601Z,15.70
2023-01-22T13:37:24.923Z,15.74
2023-01-22T13:39:51.866Z,15.72
2023-01-22T13:42:19.083Z,15.73
2023-01-22T13:44:52.346Z,15.70
2023-01-22T13:47:30.444Z,15.68
2023-01-22T13:49:57.882Z,15.63
2023-01-22T13:52:25.526Z,15.59
2023-01-22T13:55:07.783Z,15.54
2023-01-22T13:57:34.752Z,15.52
2023-01-22T14:00:02.919Z,15.49
2023-01-22T14:02:33.005Z,15.48
2023-01-22T14:05:00.587Z,15.51
2023-01-22T14:07:28.692Z,15.51
2023-01-22T14:09:57.662Z,15.52
2023-01-22T14:12:27.574Z,15.52
2023-01-22T14:14:55.247Z,15.54
2023-01-22T14:17:22.171Z,15.54
2023-01-22T14:19:49.144Z,15.57
2023-01-22T14:22:16.263Z,15.61
2023-01-22T14:24:43.135Z,15.64
2023-01-22T14:27:10.039Z,15.69
2023-01-22T14:29:37.094Z,15.70
2023-01-22T14:32:04.180Z,15.72
2023-01-22T14:34:31.004Z,15.74
2023-01-22T14:36:57.918Z,15.75
2023-01-22T14:39:24.870Z,15.77
2023-01-22T14:41:51.803Z,15.76
2023-01-22T14:44:19.540Z,15.83
2023-01-22T14:46:46.534Z,15.85
2023-01-22T14:49:13.465Z,15.88
2023-01-22T14:51:40.306Z,15.92
2023-01-22T14:54:07.304Z,15.94
2023-01-22T14:56:34.348Z,15.97
2023-01-22T14:59:01.366Z,15.99
2023-01-22T15:01:28.388Z,16.02
2023-01-22T15:03:55.399Z,16.05
2023-01-22T15:06:24.174Z,16.05
2023-01-22T15:08:51.324Z,16.06
2023-01-22T15:11:18.189Z,16.10
2023-01-22T15:13:45.152Z,16.12
2023-01-22T15:16:12.478Z,16.13
2023-01-22T15:18:40.020Z,16.15
2023-01-22T15:21:07.458Z,16.17
2023-01-22T15:23:34.937Z,16.16
2023-01-22T15:26:08.459Z,16.16
2023-01-22T15:28:36.141Z,16.17
2023-01-22T15:31:08.145Z,16.16
2023-01-22T15:33:36.642Z,16.14
2023-01-22T15:36:05.510Z,16.14
2023-01-22T15:38:32.531Z,16.11
2023-01-22T15:41:07.353Z,16.02
2023-01-22T15:43:34.320Z,15.88
2023-01-22T15:46:01.348Z,15.92
2023-01-22T15:48:28.430Z,15.94
2023-01-22T15:50:55.306Z,15.95
2023-01-22T15:53:22.411Z,15.94
2023-01-22T15:55:50.645Z,15.92
2023-01-22T15:58:17.562Z,15.92
2023-01-22T16:00:44.514Z,15.94
2023-01-22T16:03:12.454Z,15.92
2023-01-22T16:05:39.420Z,15.94
2023-01-22T16:08:06.570Z,15.98
2023-01-22T16:10:36.644Z,16.04
2023-01-22T16:13:03.766Z,16.08
2023-01-22T16:15:30.760Z,16.12
2023-01-22T16:17:58.370Z,16.16
2023-01-22T16:20:25.420Z,16.17
2023-01-22T16:22:52.522Z,16.07
2023-01-22T16:25:19.818Z,16.15
2023-01-22T16:27:46.880Z,16.17
2023-01-22T16:30:16.881Z,16.23
2023-01-22T16:32:46.981Z,16.23
2023-01-22T16:35:14.055Z,16.21
2023-01-22T16:37:44.653Z,16.21
2023-01-22T16:40:15.934Z,16.19
2023-01-22T16:42:59.024Z,16.19
2023-01-22T16:45:26.312Z,16.18
2023-01-22T16:47:53.861Z,16.21
2023-01-22T16:50:21.276Z,16.19
2023-01-22T16:52:48.582Z,16.23
2023-01-22T16:55:15.607Z,16.22
2023-01-22T16:57:42.733Z,16.19
2023-01-22T17:00:10.742Z,16.21
2023-01-22T17:02:38.046Z,16.22
2023-01-22T17:05:09.162Z,16.23
2023-01-22T17:07:36.044Z,16.23
2023-01-22T17:10:06.475Z,16.25
2023-01-22T17:12:34.075Z,16.29
2023-01-22T17:15:01.142Z,16.33
2023-01-22T17:17:28.175Z,16.38
2023-01-22T17:19:55.785Z,16.41
2023-01-22T17:22:24.406Z,16.40
2023-01-22T17:24:52.830Z,16.41
2023-01-22T17:27:21.268Z,16.47
2023-01-22T17:29:48.237Z,16.48
2023-01-22T17:32:15.228Z,16.53
2023-01-22T17:34:42.410Z,16.56
2023-01-22T17:37:13.899Z,16.59
2023-01-22T17:39:43.126Z,16.62
2023-01-22T17:42:10.159Z,16.62
2023-01-22T17:44:38.276Z,16.64
2023-01-22T17:47:06.068Z,16.67
2023-01-22T17:49:35.190Z,16.71
2023-01-22T17:52:03.229Z,16.73
2023-01-22T17:54:30.480Z,16.75
2023-01-22T17:56:57.759Z,16.77
2023-01-22T17:59:27.165Z,16.81
2023-01-22T18:01:54.455Z,16.81
2023-01-22T18:04:23.192Z,16.83
2023-01-22T18:06:54.041Z,16.85
2023-01-22T18:09:22.530Z,16.86
2023-01-22T18:11:49.990Z,16.86
2023-01-22T18:14:25.307Z,16.87
2023-01-22T18:16:52.731Z,16.89
2023-01-22T18:19:23.544Z,16.87
2023-01-22T18:21:50.860Z,16.86
2023-01-22T18:24:18.418Z,16.86
2023-01-22T18:26:45.435Z,16.87
2023-01-22T18:29:12.468Z,16.88
2023-01-22T18:31:39.993Z,16.74
2023-01-22T18:34:08.046Z,16.62
2023-01-22T18:36:38.271Z,16.64
2023-01-22T18:39:09.139Z,16.65
2023-01-22T18:41:37.146Z,16.67
2023-01-22T18:44:04.448Z,16.71
2023-01-22T18:46:34.210Z,16.75
2023-01-22T18:49:03.869Z,16.77
2023-01-22T18:51:32.663Z,16.79
2023-01-22T18:54:01.378Z,16.79
2023-01-22T18:56:28.610Z,16.80
2023-01-22T18:58:56.734Z,16.76
2023-01-22T19:01:29.970Z,16.69
2023-01-22T19:04:00.018Z,16.74
2023-01-22T19:06:30.127Z,16.73
2023-01-22T19:09:02.933Z,16.75
2023-01-22T19:11:33.198Z,16.80
2023-01-22T19:14:00.832Z,16.82
2023-01-22T19:16:28.653Z,16.85
2023-01-22T19:18:57.461Z,16.86
2023-01-22T19:21:26.374Z,16.88
2023-01-22T19:23:57.132Z,16.92
2023-01-22T19:26:32.966Z,16.94
2023-01-22T19:29:07.777Z,16.93
2023-01-22T19:31:38.482Z,16.99
2023-01-22T19:34:07.453Z,17.04
2023-01-22T19:36:38.559Z,17.08
2023-01-22T19:39:12.031Z,17.13
2023-01-22T19:41:40.452Z,17.21
2023-01-22T19:44:09.393Z,17.26
2023-01-22T19:46:40.655Z,17.29
2023-01-22T19:49:09.233Z,17.36
2023-01-22T19:51:37.194Z,17.41
2023-01-22T19:54:08.376Z,17.44
2023-01-22T19:56:37.454Z,17.48
2023-01-22T19:59:11.299Z,17.54
2023-01-22T20:01:39.748Z,17.55
2023-01-22T20:04:14.309Z,17.59
2023-01-22T20:06:44.827Z,17.61
2023-01-22T20:09:14.901Z,17.62
2023-01-22T20:11:42.241Z,17.63
2023-01-22T20:14:10.606Z,17.64
2023-01-22T20:16:37.900Z,17.63
2023-01-22T20:19:05.273Z,17.65
2023-01-22T20:21:37.008Z,17.63
2023-01-22T20:24:08.009Z,17.64
2023-01-22T20:26:38.128Z,17.66
2023-01-22T20:29:06.603Z,17.65
2023-01-22T20:31:34.638Z,17.64
2023-01-22T20:34:03.553Z,17.63
2023-01-22T20:36:32.942Z,17.66
2023-01-22T20:39:02.659Z,17.62
2023-01-22T20:41:31.318Z,17.63
2023-01-22T20:43:58.933Z,17.63
2023-01-22T20:46:28.803Z,17.62
2023-01-22T20:49:00.164Z,17.60
2023-01-22T20:51:29.386Z,17.52
2023-01-22T20:53:58.379Z,17.48
2023-01-22T20:56:31.454Z,17.37
2023-01-22T20:59:10.714Z,17.37
2023-01-22T21:01:38.116Z,17.42
2023-01-22T21:04:07.390Z,17.41
2023-01-22T21:06:38.988Z,17.43
2023-01-22T21:09:09.416Z,17.41
2023-01-22T21:11:38.247Z,17.42
2023-01-22T21:14:07.984Z,17.41
2023-01-22T21:16:38.468Z,17.45
2023-01-22T21:19:27.665Z,17.45
2023-01-22T21:21:55.826Z,17.46
2023-01-22T21:24:24.851Z,17.44
2023-01-22T21:26:52.175Z,17.40
2023-01-22T21:29:24.209Z,17.36
2023-01-22T21:31:53.279Z,17.25
2023-01-22T21:34:23.469Z,17.26
2023-01-22T21:36:55.786Z,17.20
2023-01-22T21:39:25.229Z,17.20
2023-01-22T21:42:12.957Z,17.13
2023-01-22T21:45:12.904Z,17.02
2023-01-22T21:47:40.098Z,16.85
2023-01-22T21:50:12.606Z,16.72
2023-01-22T21:52:40.228Z,16.59
2023-01-22T21:55:08.634Z,16.47
2023-01-22T21:57:38.222Z,16.41
2023-01-22T22:00:06.289Z,16.28
2023-01-22T22:02:33.350Z,16.21
2023-01-22T22:05:01.177Z,16.15
2023-01-22T22:07:28.309Z,16.08
2023-01-22T22:09:57.801Z,16.00
2023-01-22T22:12:26.311Z,15.95
2023-01-22T22:14:54.269Z,15.87
2023-01-22T22:17:21.275Z,15.81
2023-01-22T22:19:48.451Z,15.74
2023-01-22T22:22:17.261Z,15.70
2023-01-22T22:24:44.238Z,15.66
2023-01-22T22:27:13.371Z,15.61
2023-01-22T22:29:40.503Z,15.56
2023-01-22T22:32:07.833Z,15.52
2023-01-22T22:34:35.132Z,15.47
2023-01-22T22:37:02.357Z,15.41
2023-01-22T22:39:29.636Z,15.36
2023-01-22T22:41:56.662Z,15.33
2023-01-22T22:44:23.957Z,15.27
2023-01-22T22:46:51.064Z,15.20
2023-01-22T22:49:18.261Z,15.18
2023-01-22T22:51:47.282Z,15.12
2023-01-22T22:54:17.457Z,15.09
2023-01-22T22:56:46.087Z,15.05
2023-01-22T22:59:13.551Z,15.00
2023-01-22T23:01:41.276Z,14.97
2023-01-22T23:04:09.037Z,14.93
2023-01-22T23:06:36.794Z,14.92
2023-01-22T23:09:06.634Z,14.88
2023-01-22T23:11:35.024Z,14.85
2023-01-22T23:14:02.979Z,14.80
2023-01-22T23:16:32.657Z,14.76
2023-01-22T23:19:03.094Z,14.72
2023-01-22T23:21:30.236Z,14.71
2023-01-22T23:23:57.678Z,14.69
2023-01-22T23:26:30.132Z,14.66
2023-01-22T23:29:00.845Z,14.61
2023-01-22T23:31:29.959Z,14.60
2023-01-22T23:33:57.299Z,14.56
2023-01-22T23:36:26.366Z,14.52
2023-01-22T23:38:53.841Z,14.47
2023-01-22T23:41:21.702Z,14.46
2023-01-22T23:43:49.054Z,14.42
2023-01-22T23:46:27.979Z,14.40
2023-01-22T23:48:56.326Z,14.37
2023-01-22T23:51:23.828Z,14.34
2023-01-22T23:53:52.131Z,14.30
2023-01-22T23:56:23.781Z,14.29
2023-01-22T23:58:54.123Z,14.25
